createdAt,value
2022-11-25T00:03:57.874Z,73.41
2022-11-25T00:09:29.627Z,73.47
2022-11-25T00:15:01.330Z,73.46
2022-11-25T00:20:32.949Z,73.41
2022-11-25T00:26:04.442Z,73.38
2022-11-25T00:31:36.341Z,73.39
2022-11-25T00:37:08.074Z,73.47
2022-11-25T00:42:45.974Z,73.47
2022-11-25T00:48:17.585Z,73.39
2022-11-25T00:53:50.282Z,73.39
2022-11-25T00:59:21.215Z,73.40
2022-11-25T01:10:24.859Z,73.35
2022-11-25T01:15:56.827Z,73.37
2022-11-25T01:21:28.546Z,73.39
2022-11-25T01:27:06.242Z,73.52
2022-11-25T01:32:37.999Z,73.67
2022-11-25T01:38:09.839Z,73.57
2022-11-25T01:43:47.724Z,73.55
2022-11-25T01:49:19.407Z,73.63
2022-11-25T01:54:50.745Z,73.70
2022-11-25T02:00:22.026Z,73.78
2022-11-25T02:05:53.483Z,73.86
2022-11-25T02:11:25.247Z,73.82
2022-11-25T02:16:56.684Z,73.87
2022-11-25T02:22:28.520Z,73.88
2022-11-25T02:28:00.195Z,73.92
2022-11-25T02:33:32.335Z,73.95
2022-11-25T02:39:03.878Z,74.12
2022-11-25T02:44:36.108Z,74.13
2022-11-25T02:50:07.636Z,74.06
2022-11-25T02:55:39.483Z,74.06
2022-11-25T03:01:11.268Z,74.10
2022-11-25T03:06:42.782Z,74.06
2022-11-25T03:12:14.623Z,74.08
2022-11-25T03:17:46.672Z,74.05
2022-11-25T03:23:18.515Z,74.02
2022-11-25T03:28:50.262Z,73.99
2022-11-25T03:34:22.037Z,73.96
2022-11-25T03:39:53.589Z,74.01
2022-11-25T03:45:25.659Z,73.95
2022-11-25T03:50:57.465Z,74.00
2022-11-25T03:56:35.301Z,73.97
2022-11-25T04:02:06.829Z,74.03
2022-11-25T04:07:38.969Z,74.03
2022-11-25T04:13:17.028Z,74.06
2022-11-25T04:18:49.069Z,73.99
2022-11-25T04:24:20.659Z,74.02
2022-11-25T04:29:58.740Z,74.05
2022-11-25T04:35:30.389Z,74.04
2022-11-25T04:41:02.333Z,74.02
2022-11-25T04:46:34.078Z,73.98
2022-11-25T04:52:05.800Z,73.97
2022-11-25T04:57:37.523Z,74.16
2022-11-25T05:08:41.208Z,74.43
2022-11-25T05:14:13.115Z,74.62
2022-11-25T05:19:44.999Z,74.59
2022-11-25T05:25:22.504Z,74.90
2022-11-25T05:30:54.645Z,75.04
2022-11-25T05:36:26.221Z,75.22
2022-11-25T05:41:58.064Z,75.38
2022-11-25T05:47:29.895Z,75.36
2022-11-25T05:53:01.808Z,75.56
2022-11-25T05:58:33.927Z,75.58
2022-11-25T06:04:05.661Z,75.34
2022-11-25T06:09:37.689Z,75.27
2022-11-25T06:15:09.596Z,75.12
2022-11-25T06:20:41.486Z,75.11
2022-11-25T06:26:13.377Z,75.01
2022-11-25T06:31:45.417Z,75.03
2022-11-25T06:37:17.283Z,74.93
2022-11-25T06:42:49.185Z,74.95
2022-11-25T06:48:20.596Z,74.92
2022-11-25T06:53:52.337Z,74.87
2022-11-25T06:59:24.429Z,74.83
2022-11-25T07:04:55.895Z,74.90
2022-11-25T07:10:27.694Z,74.97
2022-11-25T07:15:59.514Z,74.79
2022-11-25T07:21:36.924Z,74.74
2022-11-25T07:27:08.465Z,74.65
2022-11-25T07:34:53.742Z,74.56
2022-11-25T07:40:24.612Z,74.51
2022-11-25T07:45:56.174Z,74.42
2022-11-25T07:51:28.056Z,74.37
2022-11-25T07:56:59.743Z,74.38
2022-11-25T08:08:03.208Z,74.33
2022-11-25T08:13:34.856Z,74.28
2022-11-25T08:19:06.935Z,74.17
2022-11-25T08:24:38.621Z,74.15
2022-11-25T08:30:10.320Z,74.03
2022-11-25T08:35:41.885Z,73.95
2022-11-25T08:41:13.573Z,73.83
2022-11-25T08:46:45.656Z,73.81
2022-11-25T08:52:17.239Z,73.38
2022-11-25T08:57:48.794Z,73.12
2022-11-25T09:03:20.750Z,73.00
2022-11-25T09:08:58.224Z,73.11
2022-11-25T09:14:36.109Z,73.03
2022-11-25T09:20:07.746Z,73.07
2022-11-25T09:25:39.678Z,72.91
2022-11-25T09:31:11.433Z,72.88
2022-11-25T09:36:49.036Z,72.32
2022-11-25T09:47:55.724Z,71.33
2022-11-25T09:53:22.098Z,71.03
2022-11-25T09:58:53.843Z,70.09
2022-11-25T10:04:25.733Z,69.11
2022-11-25T10:09:57.379Z,69.39
2022-11-25T10:12:20.856Z,69.33
2022-11-25T10:17:52.457Z,68.88
2022-11-25T10:23:27.992Z,68.64
2022-11-25T10:28:55.993Z,68.19
2022-11-25T10:34:27.741Z,68.14
2022-11-25T10:39:59.733Z,67.79
2022-11-25T10:45:31.326Z,67.64
2022-11-25T10:51:03.429Z,67.43
2022-11-25T10:56:34.996Z,66.94
2022-11-25T11:02:06.933Z,66.80
2022-11-25T11:07:38.679Z,66.36
2022-11-25T11:13:10.327Z,66.32
2022-11-25T11:18:42.194Z,66.27
2022-11-25T11:24:19.764Z,66.13
2022-11-25T11:29:51.620Z,65.69
2022-11-25T11:35:23.494Z,65.18
2022-11-25T11:40:55.074Z,64.68
2022-11-25T11:46:27.027Z,64.67
2022-11-25T11:51:58.713Z,64.26
2022-11-25T11:57:30.522Z,64.02
2022-11-25T12:03:02.411Z,63.17
2022-11-25T12:08:34.149Z,62.82
2022-11-25T12:14:05.871Z,62.26
2022-11-25T12:19:37.640Z,61.66
2022-11-25T12:25:15.483Z,61.31
2022-11-25T12:30:49.016Z,61.38
2022-11-25T12:36:20.480Z,61.41
2022-11-25T12:47:21.891Z,61.82
2022-11-25T12:52:53.525Z,61.70
2022-11-25T12:58:31.336Z,61.54
2022-11-25T13:04:02.458Z,61.71
2022-11-25T13:09:34.047Z,61.36
2022-11-25T13:15:06.172Z,61.21
2022-11-25T13:20:37.729Z,60.77
2022-11-25T13:26:09.226Z,60.63
2022-11-25T13:31:40.756Z,60.43
2022-11-25T13:42:47.805Z,60.47
2022-11-25T13:48:19.618Z,60.49
2022-11-25T13:53:57.546Z,60.66
2022-11-25T13:59:29.125Z,60.79
2022-11-25T14:05:00.951Z,60.75
2022-11-25T14:10:32.721Z,59.43
2022-11-25T14:16:07.125Z,59.97
2022-11-25T14:21:35.579Z,60.42
2022-11-25T14:27:07.055Z,60.66
2022-11-25T14:32:38.207Z,60.77
2022-11-25T14:38:09.801Z,61.24
2022-11-25T14:43:41.394Z,61.63
2022-11-25T14:49:30.575Z,62.44
2022-11-25T14:54:44.318Z,62.86
2022-11-25T15:00:19.160Z,63.64
2022-11-25T15:05:50.970Z,64.98
2022-11-25T15:11:22.727Z,64.94
2022-11-25T15:16:54.259Z,65.17
2022-11-25T15:22:25.764Z,65.31
2022-11-25T15:27:57.602Z,65.78
2022-11-25T15:33:29.482Z,66.13
2022-11-25T15:39:01.352Z,66.45
2022-11-25T15:44:34.339Z,66.62
2022-11-25T15:50:06.410Z,67.02
2022-11-25T15:55:38.211Z,67.14
2022-11-25T16:01:10.197Z,67.46
2022-11-25T16:06:41.657Z,67.61
2022-11-25T16:12:13.484Z,68.05
2022-11-25T16:17:45.352Z,68.21
2022-11-25T16:23:16.922Z,68.40
2022-11-25T16:28:48.891Z,68.59
2022-11-25T16:34:20.754Z,68.89
2022-11-25T16:39:52.533Z,69.36
2022-11-25T16:45:24.631Z,70.46
2022-11-25T16:50:56.081Z,70.95
2022-11-25T16:56:27.956Z,71.13
2022-11-25T17:02:00.504Z,71.06
2022-11-25T17:07:33.682Z,71.04
2022-11-25T17:13:04.359Z,71.13
2022-11-25T17:18:36.032Z,71.22
2022-11-25T17:24:07.886Z,71.33
2022-11-25T17:29:40.383Z,71.46
2022-11-25T17:35:11.859Z,71.53
2022-11-25T17:40:49.759Z,71.71
2022-11-25T17:48:42.565Z,72.02
2022-11-25T18:05:27.867Z,72.81
2022-11-25T18:11:00.186Z,73.10
2022-11-25T18:16:31.972Z,73.25
2022-11-25T18:27:33.391Z,73.38
2022-11-25T18:38:49.252Z,73.37
2022-11-25T18:44:25.681Z,73.31
2022-11-25T18:49:56.204Z,73.41
2022-11-25T18:55:24.120Z,73.53
2022-11-25T19:03:17.260Z,73.65
2022-11-25T19:08:49.159Z,73.70
2022-11-25T19:14:20.852Z,73.69
2022-11-25T19:19:52.518Z,73.65
2022-11-25T19:25:24.469Z,73.69
2022-11-25T19:31:02.304Z,73.76
2022-11-25T19:36:33.927Z,73.76
2022-11-25T19:42:11.789Z,73.84
2022-11-25T19:47:43.429Z,73.92
2022-11-25T19:53:15.391Z,73.93
2022-11-25T19:58:47.247Z,74.09
2022-11-25T20:04:24.662Z,74.01
2022-11-25T20:09:56.766Z,74.02
2022-11-25T20:15:27.990Z,73.99
2022-11-25T20:20:59.477Z,73.94
2022-11-25T20:26:31.549Z,74.17
2022-11-25T20:32:03.253Z,74.26
2022-11-25T20:37:35.091Z,74.46
2022-11-25T20:43:06.646Z,74.55
2022-11-25T20:48:38.461Z,74.50
2022-11-25T20:56:30.386Z,74.69
2022-11-25T21:02:01.729Z,74.76
2022-11-25T21:07:33.265Z,74.93
2022-11-25T21:13:10.701Z,74.98
2022-11-25T21:18:42.602Z,75.07
2022-11-25T21:29:52.054Z,75.14
2022-11-25T21:35:24.029Z,75.17
2022-11-25T21:40:55.548Z,75.26
2022-11-25T21:46:27.142Z,75.25
2022-11-25T21:51:58.669Z,75.31
2022-11-25T21:57:30.670Z,75.36
2022-11-25T22:03:02.745Z,75.53
2022-11-25T22:08:34.414Z,75.49
2022-11-25T22:19:38.141Z,75.53
2022-11-25T22:25:10.127Z,75.49
2022-11-25T22:30:42.062Z,75.47
2022-11-25T22:36:13.615Z,75.49
2022-11-25T22:41:45.689Z,75.45
2022-11-25T22:47:17.284Z,75.37
2022-11-25T22:52:49.528Z,75.39
2022-11-25T22:58:21.924Z,75.43
2022-11-25T23:03:54.054Z,75.41
2022-11-25T23:09:28.126Z,75.36
2022-11-25T23:14:59.982Z,75.41
2022-11-25T23:20:31.885Z,75.37
2022-11-25T23:26:03.984Z,75.39
2022-11-25T23:31:36.195Z,75.42
2022-11-25T23:37:08.130Z,75.51
2022-11-25T23:42:39.902Z,75.53
2022-11-25T23:48:11.799Z,75.61
2022-11-25T23:53:43.741Z,75.64
2022-11-25T23:59:16.081Z,75.60
